Time;durP1;ratioP1;P1;durP2;ratioP2;P2;SDS_P1;SDS_P2;PMS_P1;PMS_P2;Temp;Humidity;BMP_temperature;BMP_pressure;BME280_temperature;BME280_humidity;BME280_pressure;Samples;Min_cycle;Max_cycle;Signal;HPM_P1;HPM_P2
2023/05/04 00:00:07;;;;;;;38.17;17.88;;;;;;;8.23;100.00;102322.50;4992431;28;20039;-73
2023/05/04 00:02:33;;;;;;;27.15;16.35;;;;;;;8.25;100.00;102323.31;5002778;28;20050;-73
2023/05/04 00:04:59;;;;;;;35.33;17.15;;;;;;;8.17;100.00;102313.84;4999204;28;20198;-72
2023/05/04 00:07:25;;;;;;;26.02;16.92;;;;;;;8.23;100.00;102310.97;4991588;28;20480;-74
2023/05/04 00:09:53;;;;;;;23.52;16.13;;;;;;;8.08;100.00;102304.34;5002252;28;20041;-73
2023/05/04 00:12:19;;;;;;;27.02;16.30;;;;;;;8.22;100.00;102310.13;4996262;28;20475;-73
2023/05/04 00:14:47;;;;;;;24.23;16.73;;;;;;;8.12;100.00;102302.47;4989522;28;20038;-73
2023/05/04 00:17:13;;;;;;;23.85;16.65;;;;;;;8.12;100.00;102302.47;4994600;28;20042;-72
2023/05/04 00:19:40;;;;;;;33.40;16.63;;;;;;;8.14;100.00;102298.88;5004475;28;20031;-72
2023/05/04 00:22:07;;;;;;;27.23;16.25;;;;;;;8.02;100.00;102299.22;4991267;28;20038;-73
2023/05/04 00:24:32;;;;;;;24.85;15.32;;;;;;;8.06;100.00;102303.53;4996595;28;20030;-73
2023/05/04 00:26:58;;;;;;;26.45;16.33;;;;;;;7.99;100.00;102294.88;4992186;28;20047;-72
2023/05/04 00:29:24;;;;;;;26.25;16.88;;;;;;;7.87;100.00;102292.56;4996679;28;20482;-72
2023/05/04 00:31:49;;;;;;;23.38;14.60;;;;;;;7.96;100.00;102294.09;5005784;28;20097;-73
2023/05/04 00:34:15;;;;;;;24.83;15.07;;;;;;;7.84;100.00;102283.84;5005804;28;20027;-73
2023/05/04 00:36:41;;;;;;;29.60;15.68;;;;;;;7.92;100.00;102276.50;5004595;28;20038;-73
2023/05/04 00:39:07;;;;;;;23.50;15.27;;;;;;;7.88;100.00;102280.16;5016598;28;20038;-72
2023/05/04 00:41:33;;;;;;;25.02;15.45;;;;;;;7.82;100.00;102277.66;5009430;28;20172;-72
2023/05/04 00:43:59;;;;;;;28.25;15.32;;;;;;;7.88;100.00;102272.19;4998021;28;20848;-73
2023/05/04 00:46:25;;;;;;;29.40;15.23;;;;;;;7.85;100.00;102266.97;5001632;28;20603;-72
2023/05/04 00:48:54;;;;;;;21.48;13.80;;;;;;;7.84;100.00;102267.91;5000380;28;20066;-73
2023/05/04 00:51:24;;;;;;;29.38;15.82;;;;;;;7.84;100.00;102258.13;4994288;28;20202;-73
2023/05/04 00:53:51;;;;;;;23.10;15.02;;;;;;;7.79;100.00;102273.34;5004244;28;20038;-73
2023/05/04 00:56:24;;;;;;;24.33;15.93;;;;;;;7.67;100.00;102258.59;5005068;28;20050;-72
2023/05/04 00:58:56;;;;;;;25.80;15.25;;;;;;;7.72;100.00;102258.47;4994725;28;20030;-72
2023/05/04 01:01:23;;;;;;;23.05;15.07;;;;;;;7.56;100.00;102252.75;4999420;28;20084;-73
2023/05/04 01:03:50;;;;;;;26.17;14.70;;;;;;;7.63;100.00;102250.78;4994827;28;20070;-73
2023/05/04 01:06:19;;;;;;;26.98;14.57;;;;;;;7.64;100.00;102249.88;5016959;28;20175;-72
2023/05/04 01:08:55;;;;;;;22.38;14.52;;;;;;;7.48;100.00;102250.31;4993979;28;20041;-72
2023/05/04 01:11:31;;;;;;;22.33;14.57;;;;;;;7.52;100.00;102248.44;5010657;28;20037;-73
2023/05/04 01:13:59;;;;;;;21.52;14.80;;;;;;;7.53;100.00;102250.19;4998192;28;20038;-72
2023/05/04 01:16:32;;;;;;;22.20;14.82;;;;;;;7.56;100.00;102241.25;4994814;28;20049;-72
2023/05/04 01:18:58;;;;;;;24.23;15.20;;;;;;;7.59;100.00;102242.03;4994317;28;20681;-74
2023/05/04 01:21:28;;;;;;;21.50;14.05;;;;;;;7.35;100.00;102240.06;5000996;28;20045;-72
2023/05/04 01:23:55;;;;;;;25.92;15.90;;;;;;;7.41;100.00;102238.13;4996094;28;20141;-72
2023/05/04 01:26:34;;;;;;;25.45;14.75;;;;;;;7.32;100.00;102237.50;5001112;28;20045;-73
2023/05/04 01:29:15;;;;;;;21.33;14.85;;;;;;;7.42;100.00;102236.31;5005755;28;20045;-72
2023/05/04 01:31:43;;;;;;;27.95;15.88;;;;;;;7.39;100.00;102242.59;4990142;28;20326;-73
2023/05/04 01:34:09;;;;;;;23.83;14.65;;;;;;;7.33;100.00;102242.78;5002827;28;20030;-73
2023/05/04 01:36:35;;;;;;;22.50;14.60;;;;;;;7.37;100.00;102232.94;5002609;28;20030;-72
2023/05/04 01:39:02;;;;;;;23.13;15.98;;;;;;;7.19;100.00;102242.28;5001928;28;20467;-72
2023/05/04 01:41:28;;;;;;;23.02;14.80;;;;;;;7.35;100.00;102237.41;4993412;28;20053;-73
2023/05/04 01:43:58;;;;;;;26.80;14.82;;;;;;;7.32;100.00;102233.06;5000039;28;20034;-72
2023/05/04 01:46:28;;;;;;;23.88;15.30;;;;;;;7.30;100.00;102236.69;5008615;28;20057;-72
2023/05/04 01:48:54;;;;;;;22.75;15.05;;;;;;;7.17;100.00;102238.78;5000697;28;20482;-72
2023/05/04 01:51:24;;;;;;;22.77;14.98;;;;;;;7.19;100.00;102234.31;5008767;28;20535;-73
2023/05/04 01:53:53;;;;;;;23.25;15.30;;;;;;;7.33;100.00;102245.44;5012939;28;20142;-72
2023/05/04 01:56:19;;;;;;;28.95;15.13;;;;;;;7.12;100.00;102241.53;5000178;28;20202;-72
2023/05/04 01:58:44;;;;;;;23.60;15.43;;;;;;;7.10;100.00;102237.22;4995896;28;20121;-72
2023/05/04 02:01:10;;;;;;;23.92;14.88;;;;;;;7.02;100.00;102232.09;5007663;28;20038;-72
2023/05/04 02:03:35;;;;;;;24.45;15.80;;;;;;;6.95;100.00;102238.47;4987216;28;20482;-73
2023/05/04 02:06:02;;;;;;;23.05;15.02;;;;;;;6.92;100.00;102230.59;5004771;28;20105;-72
2023/05/04 02:08:27;;;;;;;28.08;14.30;;;;;;;6.91;100.00;102234.16;5005385;28;20151;-72
2023/05/04 02:10:53;;;;;;;29.05;16.00;;;;;;;6.82;100.00;102237.91;5020893;28;20046;-73
2023/05/04 02:13:18;;;;;;;30.13;15.48;;;;;;;6.82;100.00;102234.38;5009185;28;20141;-71
2023/05/04 02:15:44;;;;;;;26.33;15.32;;;;;;;6.95;100.00;102223.44;5016464;28;20201;-72
2023/05/04 02:18:10;;;;;;;26.30;15.00;;;;;;;6.92;100.00;102230.59;5002485;28;20069;-71
2023/05/04 02:20:35;;;;;;;26.10;15.82;;;;;;;6.67;100.00;102228.56;5002046;28;20046;-73
2023/05/04 02:23:01;;;;;;;24.60;15.25;;;;;;;6.69;100.00;102226.75;5001388;28;20046;-73
2023/05/04 02:25:27;;;;;;;27.15;16.10;;;;;;;6.58;100.00;102228.81;5002859;28;20046;-73
2023/05/04 02:27:52;;;;;;;31.48;15.68;;;;;;;6.74;100.00;102229.28;5015789;28;20042;-73
2023/05/04 02:30:18;;;;;;;29.20;15.65;;;;;;;6.71;100.00;102224.06;4999524;28;20181;-72
2023/05/04 02:32:44;;;;;;;26.73;16.60;;;;;;;6.65;100.00;102217.13;5009810;28;20196;-73
2023/05/04 02:35:09;;;;;;;26.65;15.43;;;;;;;6.55;100.00;102214.75;4999504;28;20062;-72
2023/05/04 02:37:35;;;;;;;25.42;14.55;;;;;;;6.70;100.00;102217.88;4998358;28;20562;-72
2023/05/04 02:40:03;;;;;;;29.48;15.35;;;;;;;6.54;100.00;102213.00;4988144;28;20038;-72
2023/05/04 02:42:28;;;;;;;21.90;15.50;;;;;;;6.54;100.00;102213.00;5002622;28;20963;-72
2023/05/04 02:44:57;;;;;;;25.73;15.95;;;;;;;6.61;100.00;102212.81;5009140;28;20042;-73
2023/05/04 02:47:23;;;;;;;25.75;14.90;;;;;;;6.51;100.00;102215.72;4993168;28;20041;-73
2023/05/04 02:49:49;;;;;;;21.55;15.30;;;;;;;6.56;100.00;102208.53;5007460;28;20904;-73
2023/05/04 02:52:19;;;;;;;29.85;15.43;;;;;;;6.56;100.00;102211.19;4992950;28;20129;-72
2023/05/04 02:54:44;;;;;;;23.08;14.48;;;;;;;6.56;100.00;102213.84;4992922;28;20042;-73
2023/05/04 02:57:10;;;;;;;26.42;16.05;;;;;;;6.55;100.00;102209.44;4998909;28;20073;-72
2023/05/04 02:59:36;;;;;;;25.73;15.65;;;;;;;6.28;100.00;102209.22;5000471;28;20049;-73
2023/05/04 03:02:01;;;;;;;27.23;15.05;;;;;;;6.49;100.00;102203.41;4991681;28;20145;-72
2023/05/04 03:04:27;;;;;;;27.33;16.13;;;;;;;6.45;100.00;102204.38;5000165;28;20079;-72
2023/05/04 03:06:52;;;;;;;30.02;15.88;;;;;;;6.54;100.00;102203.28;5001339;28;20038;-73
2023/05/04 03:09:18;;;;;;;26.98;15.98;;;;;;;6.52;100.00;102201.56;5005664;28;20117;-72
2023/05/04 03:11:43;;;;;;;23.73;16.17;;;;;;;6.45;100.00;102207.03;4993526;28;20064;-72
2023/05/04 03:14:09;;;;;;;25.20;15.82;;;;;;;6.32;100.00;102202.91;5004426;28;20038;-73
2023/05/04 03:16:35;;;;;;;27.30;15.98;;;;;;;6.42;100.00;102195.63;4990546;28;20137;-74
2023/05/04 03:19:01;;;;;;;29.75;15.25;;;;;;;6.50;100.00;102193.66;5008358;28;20852;-72
2023/05/04 03:21:28;;;;;;;25.17;15.45;;;;;;;6.41;100.00;102200.06;4989179;28;20046;-73
2023/05/04 03:23:53;;;;;;;31.02;15.55;;;;;;;6.46;100.00;102194.63;5000271;28;20410;-74
2023/05/04 03:26:20;;;;;;;20.85;14.40;;;;;;;6.58;100.00;102188.19;4990991;28;20030;-73
2023/05/04 03:28:46;;;;;;;26.23;15.80;;;;;;;6.58;100.00;102188.19;4997423;28;20117;-72
2023/05/04 03:31:12;;;;;;;24.50;14.55;;;;;;;6.47;100.00;102193.72;5007109;28;20038;-72
2023/05/04 03:33:38;;;;;;;22.35;15.40;;;;;;;6.56;100.00;102196.16;4997277;28;20096;-73
2023/05/04 03:36:05;;;;;;;29.58;14.73;;;;;;;6.60;100.00;102186.34;4994321;28;20070;-73
2023/05/04 03:38:30;;;;;;;31.25;15.13;;;;;;;6.42;100.00;102185.88;5001551;28;20062;-73
2023/05/04 03:40:56;;;;;;;26.67;16.15;;;;;;;6.49;100.00;102184.84;4993277;28;20043;-73
2023/05/04 03:43:27;;;;;;;28.02;15.60;;;;;;;6.38;100.00;102186.03;4999357;28;20050;-73
2023/05/04 03:45:58;;;;;;;24.60;15.15;;;;;;;6.27;100.00;102186.25;4998149;28;20038;-73
2023/05/04 03:48:23;;;;;;;32.63;15.52;;;;;;;6.29;100.00;102189.75;4992833;28;20046;-73
2023/05/04 03:50:50;;;;;;;24.10;14.30;;;;;;;6.40;100.00;102176.25;4991562;28;20066;-73
2023/05/04 03:53:15;;;;;;;27.88;15.23;;;;;;;6.42;100.00;102179.72;4992890;28;20515;-72
2023/05/04 03:55:42;;;;;;;29.27;15.88;;;;;;;6.38;100.00;102176.31;5000331;28;20085;-73
2023/05/04 03:58:07;;;;;;;28.42;15.02;;;;;;;6.12;100.00;102176.91;4997434;28;20883;-72
2023/05/04 04:00:33;;;;;;;29.60;15.95;;;;;;;6.32;100.00;102173.78;5008291;28;20482;-72
2023/05/04 04:03:07;;;;;;;30.45;15.52;;;;;;;6.28;100.00;102172.13;4996038;28;20034;-73
2023/05/04 04:05:34;;;;;;;26.63;15.20;;;;;;;6.40;100.00;102177.13;5003589;28;20030;-72
2023/05/04 04:07:59;;;;;;;23.08;14.13;;;;;;;6.28;100.00;102166.84;4996401;28;20031;-72
2023/05/04 04:10:28;;;;;;;28.05;17.08;;;;;;;6.32;100.00;102170.25;5009950;28;20042;-73
2023/05/04 04:12:53;;;;;;;26.08;14.70;;;;;;;6.23;100.00;102168.72;4997358;28;20045;-73
2023/05/04 04:15:19;;;;;;;26.92;15.02;;;;;;;6.25;100.00;102169.53;4997888;28;20034;-73
2023/05/04 04:17:44;;;;;;;27.90;15.00;;;;;;;6.27;100.00;102169.50;5010389;28;20357;-72
2023/05/04 04:20:11;;;;;;;28.88;16.42;;;;;;;6.45;100.00;102161.09;5008281;28;20054;-73
2023/05/04 04:22:40;;;;;;;23.50;15.35;;;;;;;6.26;100.00;102165.97;4995405;28;20085;-73
2023/05/04 04:25:06;;;;;;;25.05;15.45;;;;;;;6.36;100.00;102163.97;5009729;28;20133;-73
2023/05/04 04:27:32;;;;;;;27.23;15.38;;;;;;;6.32;100.00;102162.31;5003213;28;20069;-72
2023/05/04 04:29:57;;;;;;;27.17;16.58;;;;;;;6.40;100.00;102161.22;4996439;28;20060;-72
2023/05/04 04:32:23;;;;;;;27.60;15.95;;;;;;;6.47;100.00;102161.94;5007385;28;20046;-72
2023/05/04 04:34:48;;;;;;;25.77;16.75;;;;;;;6.56;100.00;102161.69;4996398;28;20049;-73
2023/05/04 04:37:14;;;;;;;26.13;15.85;;;;;;;6.65;100.00;102153.53;4994309;28;20039;-72
2023/05/04 04:39:40;;;;;;;26.50;16.17;;;;;;;6.64;100.00;102153.56;4994229;28;20042;-73
2023/05/04 04:42:06;;;;;;;32.45;16.60;;;;;;;6.97;100.00;102160.59;4993995;28;20042;-73
2023/05/04 04:44:31;;;;;;;27.40;15.25;;;;;;;7.23;100.00;102151.97;4993731;28;20037;-73
2023/05/04 04:46:57;;;;;;;24.42;14.60;;;;;;;7.17;100.00;102152.09;5001256;28;20046;-74
2023/05/04 04:49:22;;;;;;;26.88;14.90;;;;;;;7.79;100.00;102162.69;4999655;28;20034;-73
2023/05/04 04:51:48;;;;;;;27.00;15.73;;;;;;;8.22;100.00;102157.78;5006622;28;20049;-72
2023/05/04 04:54:14;;;;;;;21.02;14.27;;;;;;;8.19;100.00;102152.59;4993417;28;20057;-73
2023/05/04 04:56:40;;;;;;;29.20;15.10;;;;;;;8.86;100.00;102146.81;4994125;28;20038;-72
2023/05/04 04:59:06;;;;;;;23.48;15.38;;;;;;;8.59;100.00;102149.50;4994096;28;20038;-73
2023/05/04 05:01:32;;;;;;;26.30;15.68;;;;;;;9.00;100.00;102141.88;4993651;28;20046;-73
2023/05/04 05:03:58;;;;;;;26.65;15.02;;;;;;;8.56;100.00;102137.19;4997765;28;20037;-73
2023/05/04 05:06:24;;;;;;;25.40;15.10;;;;;;;8.84;100.00;102140.69;4995808;28;20145;-73
2023/05/04 05:08:50;;;;;;;22.50;14.88;;;;;;;8.36;100.00;102138.75;5002137;28;20030;-73
2023/05/04 05:11:18;;;;;;;24.25;15.10;;;;;;;8.61;100.00;102134.38;4995306;28;20053;-72
2023/05/04 05:13:44;;;;;;;23.10;14.55;;;;;;;8.97;100.00;102137.53;4998638;28;20038;-72
2023/05/04 05:16:09;;;;;;;24.02;14.77;;;;;;;9.45;100.00;102127.81;5001795;28;20037;-71
2023/05/04 05:18:35;;;;;;;23.85;14.95;;;;;;;9.70;98.86;102141.91;4993351;28;20109;-72
2023/05/04 05:21:00;;;;;;;22.17;14.85;;;;;;;9.90;99.44;102146.44;4995778;28;20145;-72
2023/05/04 05:23:26;;;;;;;18.70;13.82;;;;;;;9.87;98.15;102143.91;4994691;28;20046;-72
2023/05/04 05:25:52;;;;;;;20.08;13.70;;;;;;;9.02;100.00;102145.34;5003108;28;20045;-72
2023/05/04 05:28:17;;;;;;;21.95;15.10;;;;;;;9.59;100.00;102137.00;5000702;28;20034;-71
2023/05/04 05:30:43;;;;;;;26.33;15.38;;;;;;;9.24;100.00;102135.66;5000420;28;20049;-72
2023/05/04 05:33:09;;;;;;;20.25;14.18;;;;;;;9.35;100.00;102137.94;4993755;28;20098;-72
2023/05/04 05:35:35;;;;;;;25.60;13.70;;;;;;;9.42;100.00;102142.06;4997167;28;20042;-71
2023/05/04 05:38:03;;;;;;;26.42;15.07;;;;;;;9.69;100.00;102134.84;4992837;28;20062;-70
2023/05/04 05:40:28;;;;;;;25.65;13.52;;;;;;;9.49;100.00;102137.41;4991957;28;20051;-72
2023/05/04 05:42:54;;;;;;;23.25;13.68;;;;;;;9.96;100.00;102127.56;4993349;28;20046;-71
2023/05/04 05:45:23;;;;;;;23.55;14.10;;;;;;;9.48;100.00;102139.19;4995539;28;20133;-72
2023/05/04 05:47:50;;;;;;;19.88;13.13;;;;;;;9.97;100.00;102133.75;4994090;28;20108;-72
2023/05/04 05:50:17;;;;;;;20.70;14.23;;;;;;;9.55;100.00;102132.72;5009329;28;20523;-73
2023/05/04 05:52:43;;;;;;;23.77;13.82;;;;;;;9.76;100.00;102125.69;4998121;28;20233;-72
2023/05/04 05:55:12;;;;;;;24.60;14.55;;;;;;;9.67;100.00;102125.16;5000494;28;20046;-72
2023/05/04 05:57:40;;;;;;;27.05;15.05;;;;;;;10.06;100.00;102128.91;4992770;28;20034;-72
2023/05/04 06:00:07;;;;;;;22.65;14.57;;;;;;;9.84;100.00;102128.91;5000401;28;20639;-72
2023/05/04 06:02:40;;;;;;;21.73;13.48;;;;;;;10.09;100.00;102125.25;5001291;28;20049;-72
2023/05/04 06:05:06;;;;;;;17.98;13.57;;;;;;;10.00;100.00;102120.31;4999604;28;20388;-71
2023/05/04 06:07:32;;;;;;;18.92;12.75;;;;;;;10.07;100.00;102117.31;4994603;28;20038;-72
2023/05/04 06:09:57;;;;;;;19.45;12.35;;;;;;;10.20;97.35;102123.03;4999099;28;20050;-72
2023/05/04 06:12:23;;;;;;;20.40;13.18;;;;;;;10.41;96.44;102115.97;5022716;28;20109;-71
2023/05/04 06:14:48;;;;;;;23.17;14.02;;;;;;;10.31;96.72;102118.16;5006742;28;20448;-71
2023/05/04 06:17:16;;;;;;;19.85;13.20;;;;;;;10.56;95.86;102115.31;5002770;28;20054;-72
2023/05/04 06:19:42;;;;;;;21.00;13.15;;;;;;;10.73;95.55;102111.91;4995632;28;20034;-72
2023/05/04 06:22:07;;;;;;;22.65;13.50;;;;;;;10.95;94.77;102105.63;4995390;28;20871;-71
2023/05/04 06:24:36;;;;;;;18.20;11.85;;;;;;;11.04;95.25;102106.06;5000956;28;20102;-72
2023/05/04 06:27:02;;;;;;;17.60;12.75;;;;;;;11.30;93.71;102110.25;5007616;28;20880;-72
2023/05/04 06:29:27;;;;;;;19.50;11.93;;;;;;;11.03;95.53;102100.81;4998700;28;20034;-72
2023/05/04 06:31:53;;;;;;;25.65;12.25;;;;;;;10.84;93.86;102093.63;4999403;28;20040;-72
2023/05/04 06:34:18;;;;;;;16.90;12.20;;;;;;;11.15;93.47;102102.94;5009326;28;20038;-72
2023/05/04 06:36:44;;;;;;;18.50;12.25;;;;;;;10.94;94.89;102099.41;4995680;28;20037;-72
2023/05/04 06:39:10;;;;;;;16.40;11.82;;;;;;;10.91;92.97;102091.56;5001442;28;20037;-72
2023/05/04 06:41:38;;;;;;;19.30;12.48;;;;;;;11.23;95.46;102097.22;5003751;28;20042;-71
2023/05/04 06:44:04;;;;;;;16.58;11.80;;;;;;;10.89;95.40;102088.06;5001376;28;20042;-70
2023/05/04 06:46:38;;;;;;;17.80;12.77;;;;;;;11.07;95.21;102097.94;5002209;28;20535;-72
2023/05/04 06:49:04;;;;;;;17.58;11.82;;;;;;;11.07;92.40;102091.72;4997621;28;20033;-70
2023/05/04 06:51:31;;;;;;;19.48;11.98;;;;;;;11.41;91.31;102086.56;5008708;28;20046;-72
2023/05/04 06:53:56;;;;;;;21.30;11.75;;;;;;;11.62;92.08;102086.50;5011755;28;20038;-71
2023/05/04 06:56:22;;;;;;;18.75;11.95;;;;;;;11.84;89.01;102084.53;5000946;28;20414;-71
2023/05/04 06:58:49;;;;;;;16.92;12.27;;;;;;;12.10;87.50;102085.09;4996178;28;20878;-72
2023/05/04 07:01:15;;;;;;;22.27;12.63;;;;;;;12.15;88.28;102088.41;5000293;28;20053;-69
2023/05/04 07:03:41;;;;;;;16.08;11.73;;;;;;;12.03;84.97;102087.19;5000110;28;20033;-73
2023/05/04 07:06:07;;;;;;;15.63;11.57;;;;;;;12.18;86.49;102080.19;4997583;28;20077;-73
2023/05/04 07:08:33;;;;;;;23.52;12.10;;;;;;;12.15;84.76;102073.22;5000644;28;20085;-71
2023/05/04 07:11:02;;;;;;;18.10;12.30;;;;;;;12.28;85.17;102075.25;5004985;28;20038;-73
2023/05/04 07:13:28;;;;;;;18.75;12.40;;;;;;;12.30;86.33;102073.34;5009051;28;20026;-72
2023/05/04 07:15:53;;;;;;;16.05;11.45;;;;;;;12.57;85.69;102073.75;4999875;28;20461;-73
2023/05/04 07:18:19;;;;;;;18.65;11.98;;;;;;;12.64;85.75;102068.00;4994319;28;20045;-72
2023/05/04 07:20:45;;;;;;;17.42;12.02;;;;;;;12.53;86.09;102074.88;4998414;28;20555;-71
2023/05/04 07:23:13;;;;;;;18.15;11.88;;;;;;;12.65;84.39;102060.84;5005197;28;20397;-73
2023/05/04 07:25:39;;;;;;;17.73;11.98;;;;;;;13.06;81.67;102063.13;4985439;28;20030;-73
2023/05/04 07:28:07;;;;;;;21.63;13.02;;;;;;;13.12;83.64;102063.66;5003700;28;20105;-71
2023/05/04 07:30:32;;;;;;;21.85;12.82;;;;;;;13.06;85.95;102058.66;5002647;28;20873;-71
2023/05/04 07:32:58;;;;;;;20.30;12.38;;;;;;;12.98;83.28;102052.81;4994498;28;20041;-73
2023/05/04 07:35:23;;;;;;;18.58;11.93;;;;;;;13.01;82.66;102054.50;4994736;28;20101;-73
2023/05/04 07:37:49;;;;;;;18.55;11.45;;;;;;;12.91;82.20;102052.31;5002517;28;20058;-72
2023/05/04 07:40:15;;;;;;;18.55;11.82;;;;;;;13.15;83.21;102044.75;4996861;28;20371;-74
2023/05/04 07:42:41;;;;;;;16.58;11.77;;;;;;;13.23;85.66;102046.16;5000917;28;20085;-73
2023/05/04 07:45:08;;;;;;;19.33;11.48;;;;;;;13.10;83.37;102044.16;5003529;28;20045;-73
2023/05/04 07:47:35;;;;;;;18.40;12.35;;;;;;;13.21;82.62;102040.88;5003068;28;20038;-72
2023/05/04 07:50:02;;;;;;;18.17;11.05;;;;;;;13.55;82.19;102034.50;4994574;28;20112;-73
2023/05/04 07:52:28;;;;;;;16.70;12.07;;;;;;;13.35;81.44;102034.75;4995131;28;20141;-73
2023/05/04 07:54:54;;;;;;;20.17;12.00;;;;;;;13.70;80.35;102025.63;4995891;28;20790;-72
2023/05/04 07:57:20;;;;;;;18.20;11.57;;;;;;;13.92;78.54;102032.41;5001058;28;20389;-72
2023/05/04 07:59:45;;;;;;;16.08;12.30;;;;;;;13.52;80.03;102026.66;5010831;28;20905;-72
2023/05/04 08:02:11;;;;;;;13.68;10.05;;;;;;;14.16;76.85;102020.22;5002470;28;20046;-72
2023/05/04 08:04:37;;;;;;;20.33;9.52;;;;;;;14.34;75.46;102020.06;4995198;28;20046;-73
2023/05/04 08:07:02;;;;;;;12.98;10.52;;;;;;;14.60;74.55;102016.69;5003039;28;20043;-72
2023/05/04 08:09:28;;;;;;;14.93;10.25;;;;;;;14.71;73.14;102016.06;4995040;28;20703;-73
2023/05/04 08:11:54;;;;;;;20.58;10.82;;;;;;;14.27;75.27;102018.72;4995049;28;20124;-73
2023/05/04 08:14:19;;;;;;;21.35;11.10;;;;;;;13.97;76.40;102019.59;4994803;28;20049;-72
2023/05/04 08:16:45;;;;;;;18.83;11.40;;;;;;;14.37;76.03;102020.75;4999649;28;20159;-72
2023/05/04 08:19:11;;;;;;;17.83;10.80;;;;;;;14.52;74.48;102019.00;5000494;28;20422;-73
2023/05/04 08:21:39;;;;;;;19.05;10.98;;;;;;;14.70;74.34;102012.47;4996018;28;20053;-72
2023/05/04 08:24:07;;;;;;;14.98;9.55;;;;;;;14.86;72.68;102004.34;5000058;28;20038;-72
2023/05/04 08:26:35;;;;;;;16.92;10.90;;;;;;;14.75;73.61;102013.06;4994789;28;20062;-72
2023/05/04 08:29:09;;;;;;;21.15;10.20;;;;;;;15.02;72.72;102004.25;5009097;28;20038;-72
2023/05/04 08:31:35;;;;;;;15.75;10.27;;;;;;;15.26;71.90;102017.91;4998028;28;20145;-72
2023/05/04 08:34:02;;;;;;;18.02;9.73;;;;;;;15.08;71.62;101992.25;4995239;28;20026;-71
2023/05/04 08:36:28;;;;;;;16.33;10.45;;;;;;;15.23;74.40;101999.31;5000349;28;20038;-71
2023/05/04 08:38:55;;;;;;;20.92;9.80;;;;;;;15.15;73.15;101996.25;5000633;28;20065;-72
2023/05/04 08:41:22;;;;;;;15.82;9.25;;;;;;;15.37;71.07;101995.75;4994384;28;21037;-72
2023/05/04 08:43:49;;;;;;;15.15;10.00;;;;;;;15.25;72.18;102000.06;4995618;28;20038;-72
2023/05/04 08:46:17;;;;;;;13.32;9.70;;;;;;;15.58;70.68;101986.28;4998428;28;20881;-73
2023/05/04 08:48:43;;;;;;;17.58;10.48;;;;;;;15.69;71.23;101977.50;4995378;28;20026;-72
2023/05/04 08:51:10;;;;;;;17.90;10.48;;;;;;;15.72;70.63;101972.81;4995517;28;20039;-72
2023/05/04 08:53:41;;;;;;;17.98;8.55;;;;;;;15.52;69.09;101975.94;4996952;28;20069;-73
2023/05/04 08:56:11;;;;;;;14.97;9.63;;;;;;;16.07;67.55;101969.56;4993822;28;20026;-72
2023/05/04 08:59:00;;;;;;;14.23;9.02;;;;;;;16.56;64.88;101956.22;4993990;28;20042;-73
2023/05/04 09:01:27;;;;;;;13.63;10.05;;;;;;;16.54;66.46;101965.38;4999526;28;20034;-73
2023/05/04 09:03:53;;;;;;;16.40;9.35;;;;;;;16.90;65.29;101955.69;5013758;28;20061;-72
2023/05/04 09:06:19;;;;;;;15.10;9.05;;;;;;;17.25;61.59;101951.25;4996894;28;20026;-72
2023/05/04 09:08:45;;;;;;;12.02;8.98;;;;;;;16.97;64.31;101951.59;4999748;28;20038;-72
2023/05/04 09:11:10;;;;;;;13.55;8.93;;;;;;;17.18;63.91;101955.41;5006121;28;20035;-72
2023/05/04 09:13:37;;;;;;;16.90;8.65;;;;;;;17.29;65.51;101946.50;4993812;28;21037;-73
2023/05/04 09:16:03;;;;;;;15.00;8.73;;;;;;;17.11;60.46;101947.84;4994476;28;20065;-73
2023/05/04 09:18:43;;;;;;;14.40;8.50;;;;;;;17.47;60.92;101945.16;4994675;28;20283;-73
2023/05/04 09:21:09;;;;;;;15.73;8.55;;;;;;;17.51;59.04;101951.16;4993744;28;20057;-73
2023/05/04 09:23:49;;;;;;;10.93;8.48;;;;;;;17.66;60.38;101946.44;4994345;28;20034;-71
2023/05/04 09:26:32;;;;;;;16.05;8.85;;;;;;;17.97;59.38;101942.28;4994297;28;20034;-73
2023/05/04 09:29:14;;;;;;;16.63;9.30;;;;;;;17.53;60.55;101954.63;4999113;28;20041;-72
2023/05/04 09:31:42;;;;;;;17.42;9.13;;;;;;;17.90;61.11;101943.75;4998983;28;20102;-72
2023/05/04 09:34:09;;;;;;;12.85;8.50;;;;;;;18.03;58.95;101934.59;4993053;28;20042;-72
2023/05/04 09:36:34;;;;;;;16.75;9.40;;;;;;;17.76;60.43;101942.97;4991735;28;20037;-73
2023/05/04 09:39:13;;;;;;;12.45;8.63;;;;;;;18.00;62.00;101942.06;4996525;28;20034;-71
2023/05/04 09:41:40;;;;;;;20.33;8.60;;;;;;;17.53;60.52;101931.19;5014212;28;20046;-72
2023/05/04 09:44:20;;;;;;;12.60;8.75;;;;;;;17.77;58.91;101930.31;4992862;28;20089;-71
2023/05/04 09:46:56;;;;;;;12.77;8.80;;;;;;;17.92;61.98;101929.16;4991621;28;20602;-71
2023/05/04 09:49:35;;;;;;;19.02;8.30;;;;;;;18.05;60.54;101927.25;4975334;28;20698;-71
2023/05/04 09:52:03;;;;;;;13.32;8.23;;;;;;;18.23;57.07;101914.16;4994666;28;20113;-71
2023/05/04 09:54:33;;;;;;;13.63;8.18;;;;;;;18.13;57.52;101918.56;5006379;28;20023;-71
2023/05/04 09:57:21;;;;;;;15.90;8.38;;;;;;;18.28;58.48;101905.69;4998195;28;20053;-71
2023/05/04 09:59:47;;;;;;;14.45;7.55;;;;;;;18.86;60.06;101912.69;4991170;28;20137;-71
2023/05/04 10:02:13;;;;;;;12.40;8.05;;;;;;;18.70;55.09;101905.97;4993151;28;20073;-72
2023/05/04 10:04:43;;;;;;;16.30;7.72;;;;;;;18.67;55.03;101901.63;4996356;28;20045;-72
2023/05/04 10:07:09;;;;;;;19.30;8.30;;;;;;;19.02;55.76;101895.22;5001835;28;20026;-72
2023/05/04 10:09:35;;;;;;;17.23;9.07;;;;;;;18.74;58.30;101894.78;5012729;28;20030;-73
2023/05/04 10:12:04;;;;;;;12.02;8.15;;;;;;;18.74;58.95;101885.81;4999129;28;20125;-72
2023/05/04 10:14:33;;;;;;;15.27;9.27;;;;;;;18.63;59.88;101881.25;5003701;28;20101;-72
2023/05/04 10:17:25;;;;;;;11.38;8.05;;;;;;;19.10;56.10;101882.81;4994464;28;20933;-71
2023/05/04 10:20:22;;;;;;;13.00;7.65;;;;;;;18.94;56.59;101879.66;5009212;28;20045;-71
2023/05/04 10:23:09;;;;;;;12.32;8.15;;;;;;;19.16;56.00;101873.31;4993628;28;20074;-71
2023/05/04 10:26:02;;;;;;;12.98;8.10;;;;;;;19.14;53.82;101869.91;5001365;28;20050;-71
2023/05/04 10:28:37;;;;;;;11.18;7.65;;;;;;;19.08;55.07;101863.16;5005293;28;20105;-72
2023/05/04 10:31:05;;;;;;;16.98;7.80;;;;;;;19.47;56.37;101858.06;4993803;28;20113;-72
2023/05/04 10:33:40;;;;;;;11.85;7.60;;;;;;;19.78;53.49;101853.66;4991484;28;20034;-71
2023/05/04 10:36:07;;;;;;;13.18;7.43;;;;;;;19.79;53.98;101847.25;4999497;28;20034;-72
2023/05/04 10:38:34;;;;;;;15.80;8.05;;;;;;;19.74;53.88;101841.38;4995008;28;20882;-72
2023/05/04 10:41:00;;;;;;;10.98;7.78;;;;;;;19.94;51.39;101845.06;5001025;28;20042;-71
2023/05/04 10:43:27;;;;;;;14.80;8.23;;;;;;;19.97;50.52;101842.06;4993407;28;20077;-71
2023/05/04 10:45:56;;;;;;;12.50;7.32;;;;;;;19.96;51.34;101840.34;4993578;28;20109;-71
2023/05/04 10:48:35;;;;;;;16.42;8.35;;;;;;;20.19;51.86;101832.94;4993607;28;20041;-71
2023/05/04 10:51:00;;;;;;;11.45;8.93;;;;;;;19.70;52.80;101830.94;5007891;28;20038;-71
2023/05/04 10:53:33;;;;;;;10.13;7.25;;;;;;;20.16;49.57;101815.09;4997676;28;20531;-72
2023/05/04 10:56:00;;;;;;;13.10;7.15;;;;;;;20.18;47.00;101805.00;4993806;28;20186;-72
2023/05/04 10:58:29;;;;;;;12.20;7.80;;;;;;;20.38;47.38;101805.03;5008554;28;20133;-72
2023/05/04 11:00:55;;;;;;;14.25;7.57;;;;;;;20.46;49.52;101802.50;4993783;28;20049;-71
2023/05/04 11:03:22;;;;;;;14.10;8.32;;;;;;;20.09;47.22;101789.56;4992627;28;20234;-72
2023/05/04 11:05:51;;;;;;;18.98;8.80;;;;;;;20.10;48.15;101787.69;4993438;28;20803;-72
2023/05/04 11:08:18;;;;;;;15.20;7.93;;;;;;;20.79;52.50;101793.22;4992437;28;20038;-72
2023/05/04 11:10:58;;;;;;;13.27;8.57;;;;;;;20.73;51.13;101782.91;5007612;28;20034;-72
2023/05/04 11:13:25;;;;;;;14.23;8.60;;;;;;;20.68;48.31;101771.63;4997160;28;20897;-71